Time;durP1;ratioP1;P1;durP2;ratioP2;P2;SDS_P1;SDS_P2;PMS_P1;PMS_P2;Temp;Humidity;BMP_temperature;BMP_pressure;BME280_temperature;BME280_humidity;BME280_pressure;Samples;Min_cycle;Max_cycle;Signal;HPM_P1;HPM_P2
2022/03/04 00:02:17;;;;;;;27.40;17.98;;;;;;;;;;5088297;28;20051;-68
2022/03/04 00:04:43;;;;;;;27.58;16.90;;;;;;;;;;5094073;28;20050;-68
2022/03/04 00:07:08;;;;;;;30.98;18.13;;;;;;;;;;5090565;28;20027;-68
2022/03/04 00:09:34;;;;;;;27.48;17.50;;;;;;;;;;5091060;28;20031;-69
2022/03/04 00:12:02;;;;;;;27.17;16.50;;;;;;;;;;5089247;28;20467;-68
2022/03/04 00:14:27;;;;;;;29.00;17.67;;;;;;;;;;5091053;28;20115;-68
2022/03/04 00:16:53;;;;;;;29.60;17.70;;;;;;;;;;5072743;28;20111;-69
2022/03/04 00:19:20;;;;;;;29.20;17.67;;;;;;;;;;5090504;28;20106;-68
2022/03/04 00:21:48;;;;;;;28.58;17.38;;;;;;;;;;5088815;28;20112;-68
2022/03/04 00:24:14;;;;;;;29.75;17.48;;;;;;;;;;5090773;28;20027;-69
2022/03/04 00:26:39;;;;;;;31.95;18.63;;;;;;;;;;5091106;28;20073;-68
2022/03/04 00:29:05;;;;;;;33.58;20.30;;;;;;;;;;5090358;28;20058;-69
2022/03/04 00:31:31;;;;;;;31.35;18.02;;;;;;;;;;5091054;28;20472;-69
2022/03/04 00:33:57;;;;;;;32.38;19.10;;;;;;;;;;5089567;28;20116;-68
2022/03/04 00:36:24;;;;;;;32.08;18.38;;;;;;;;;;5090930;28;20040;-69
2022/03/04 00:38:54;;;;;;;31.42;17.73;;;;;;;;;;5072399;28;20309;-69
2022/03/04 00:41:22;;;;;;;34.25;18.92;;;;;;;;;;5078458;28;20028;-69
2022/03/04 00:43:49;;;;;;;31.13;18.80;;;;;;;;;;5096800;28;20015;-68
2022/03/04 00:46:19;;;;;;;35.95;18.40;;;;;;;;;;5092545;28;20050;-67
2022/03/04 00:48:45;;;;;;;31.48;18.10;;;;;;;;;;5093775;28;20047;-69
2022/03/04 00:51:11;;;;;;;31.90;19.20;;;;;;;;;;5090562;28;20028;-68
2022/03/04 00:53:37;;;;;;;32.30;19.15;;;;;;;;;;5090532;28;20604;-68
2022/03/04 00:56:03;;;;;;;33.25;19.00;;;;;;;;;;5089821;28;20127;-68
2022/03/04 00:58:28;;;;;;;36.78;19.35;;;;;;;;;;5096321;28;20015;-69
2022/03/04 01:00:54;;;;;;;35.22;19.63;;;;;;;;;;5090155;28;20545;-68
2022/03/04 01:03:19;;;;;;;32.85;18.98;;;;;;;;;;5089700;28;20093;-69
2022/03/04 01:05:48;;;;;;;32.55;19.15;;;;;;;;;;5093073;28;20020;-69
2022/03/04 01:08:13;;;;;;;33.97;19.33;;;;;;;;;;5089614;28;20026;-68
2022/03/04 01:10:39;;;;;;;34.58;19.33;;;;;;;;;;5089909;28;20069;-70
2022/03/04 01:13:04;;;;;;;36.92;19.40;;;;;;;;;;5089854;28;20530;-71
2022/03/04 01:15:30;;;;;;;33.60;18.92;;;;;;;;;;5090388;28;20012;-71
2022/03/04 01:17:55;;;;;;;35.50;19.17;;;;;;;;;;5088911;28;20028;-70
2022/03/04 01:20:21;;;;;;;33.67;19.77;;;;;;;;;;5090162;28;20088;-71
2022/03/04 01:22:47;;;;;;;35.03;19.63;;;;;;;;;;5071311;28;20024;-71
2022/03/04 01:25:15;;;;;;;36.25;20.10;;;;;;;;;;5090064;28;20412;-72
2022/03/04 01:27:42;;;;;;;32.33;18.95;;;;;;;;;;5088640;28;20028;-72
2022/03/04 01:30:08;;;;;;;34.53;19.95;;;;;;;;;;5088426;28;20028;-70
2022/03/04 01:32:34;;;;;;;32.63;19.10;;;;;;;;;;5088111;28;20348;-70
2022/03/04 01:34:59;;;;;;;37.08;20.05;;;;;;;;;;5071600;28;20063;-70
2022/03/04 01:37:25;;;;;;;30.75;19.35;;;;;;;;;;5088491;28;20134;-71
2022/03/04 01:39:55;;;;;;;33.92;19.35;;;;;;;;;;5084885;28;20024;-72
2022/03/04 01:42:20;;;;;;;32.08;19.70;;;;;;;;;;5058492;28;20039;-71
2022/03/04 01:44:46;;;;;;;32.33;18.30;;;;;;;;;;5095682;28;20411;-71
2022/03/04 01:47:12;;;;;;;34.78;19.85;;;;;;;;;;5095157;28;20024;-71
2022/03/04 01:49:39;;;;;;;33.25;19.05;;;;;;;;;;5087702;28;20054;-71
2022/03/04 01:52:04;;;;;;;33.47;19.13;;;;;;;;;;5089505;28;20043;-70
2022/03/04 01:54:32;;;;;;;35.17;20.05;;;;;;;;;;5089137;28;20111;-70
2022/03/04 01:56:58;;;;;;;35.78;19.50;;;;;;;;;;5089631;28;20081;-71
2022/03/04 01:59:23;;;;;;;34.88;20.02;;;;;;;;;;5076175;28;20052;-71
2022/03/04 02:01:49;;;;;;;31.55;18.33;;;;;;;;;;5089630;28;20040;-70
2022/03/04 02:04:14;;;;;;;34.28;19.00;;;;;;;;;;5091288;28;20016;-71
2022/03/04 02:06:40;;;;;;;34.72;18.85;;;;;;;;;;5089897;28;20100;-71
2022/03/04 02:09:08;;;;;;;33.50;19.83;;;;;;;;;;5089404;28;20020;-71
2022/03/04 02:11:33;;;;;;;33.80;18.98;;;;;;;;;;5089784;28;20032;-71
2022/03/04 02:13:59;;;;;;;34.75;19.65;;;;;;;;;;5088109;28;20582;-71
2022/03/04 02:16:29;;;;;;;37.65;20.45;;;;;;;;;;5104647;28;20036;-70
2022/03/04 02:18:54;;;;;;;35.05;19.73;;;;;;;;;;5087422;28;20027;-70
2022/03/04 02:21:22;;;;;;;36.90;19.30;;;;;;;;;;5088927;28;20035;-70
2022/03/04 02:23:51;;;;;;;36.28;19.10;;;;;;;;;;5089819;28;20035;-70
2022/03/04 02:26:16;;;;;;;35.53;19.40;;;;;;;;;;5090372;28;20383;-71
2022/03/04 02:28:42;;;;;;;33.83;18.30;;;;;;;;;;5092725;28;20024;-71
2022/03/04 02:31:07;;;;;;;34.28;18.92;;;;;;;;;;5092539;28;20058;-71
2022/03/04 02:33:32;;;;;;;36.83;19.42;;;;;;;;;;5092491;28;20016;-71
2022/03/04 02:35:58;;;;;;;37.03;19.27;;;;;;;;;;5092631;28;20101;-71
2022/03/04 02:38:24;;;;;;;34.45;19.83;;;;;;;;;;5093084;28;20028;-71
2022/03/04 02:40:51;;;;;;;34.17;19.55;;;;;;;;;;5091541;28;20042;-70
2022/03/04 02:43:17;;;;;;;33.53;19.73;;;;;;;;;;5097372;28;20016;-71
2022/03/04 02:45:44;;;;;;;34.22;18.73;;;;;;;;;;5094434;28;20028;-71
2022/03/04 02:48:10;;;;;;;34.58;18.45;;;;;;;;;;5098849;28;20454;-72
2022/03/04 02:50:35;;;;;;;32.05;18.80;;;;;;;;;;5092790;28;20028;-73
2022/03/04 02:53:00;;;;;;;34.63;19.33;;;;;;;;;;5092443;28;20024;-69
2022/03/04 02:55:26;;;;;;;35.70;19.08;;;;;;;;;;5092415;28;20077;-69
2022/03/04 02:57:53;;;;;;;34.83;19.27;;;;;;;;;;5094121;28;20016;-71
2022/03/04 03:00:19;;;;;;;37.85;20.23;;;;;;;;;;5078667;28;20116;-71
2022/03/04 03:02:46;;;;;;;36.25;20.00;;;;;;;;;;5092114;28;20051;-71
2022/03/04 03:05:15;;;;;;;36.53;19.80;;;;;;;;;;5095116;28;20046;-70
2022/03/04 03:07:40;;;;;;;33.30;18.85;;;;;;;;;;5091183;28;20024;-70
2022/03/04 03:10:07;;;;;;;36.45;19.17;;;;;;;;;;5090861;28;20028;-70
2022/03/04 03:12:32;;;;;;;36.25;19.40;;;;;;;;;;5091937;28;20081;-71
2022/03/04 03:14:57;;;;;;;35.90;19.58;;;;;;;;;;5092320;28;20032;-70
2022/03/04 03:17:23;;;;;;;36.95;19.92;;;;;;;;;;5091931;28;20042;-71
2022/03/04 03:19:48;;;;;;;34.20;19.23;;;;;;;;;;5091418;28;20020;-70
2022/03/04 03:22:18;;;;;;;35.30;19.45;;;;;;;;;;5092439;28;20075;-71
2022/03/04 03:24:46;;;;;;;37.17;19.70;;;;;;;;;;5091777;28;20020;-71
2022/03/04 03:27:12;;;;;;;34.47;19.45;;;;;;;;;;5091902;28;20023;-70
2022/03/04 03:29:37;;;;;;;33.08;19.02;;;;;;;;;;5092256;28;20069;-70
2022/03/04 03:32:03;;;;;;;35.00;18.38;;;;;;;;;;5073430;28;20028;-70
2022/03/04 03:34:31;;;;;;;33.35;19.23;;;;;;;;;;5091383;28;20483;-70
2022/03/04 03:36:56;;;;;;;34.10;19.05;;;;;;;;;;5091570;28;20050;-69
2022/03/04 03:39:22;;;;;;;36.83;19.98;;;;;;;;;;5073778;28;20024;-69
2022/03/04 03:41:47;;;;;;;33.65;19.83;;;;;;;;;;5072765;28;20402;-69
2022/03/04 03:44:15;;;;;;;33.45;18.52;;;;;;;;;;5099897;28;20066;-68
2022/03/04 03:46:40;;;;;;;37.30;19.92;;;;;;;;;;5096099;28;20015;-69
2022/03/04 03:49:06;;;;;;;34.92;19.95;;;;;;;;;;5092363;27;20040;-68
2022/03/04 03:51:33;;;;;;;36.90;19.92;;;;;;;;;;5090355;28;20058;-67
2022/03/04 03:53:58;;;;;;;34.35;18.15;;;;;;;;;;5090797;28;20031;-68
2022/03/04 03:56:24;;;;;;;37.70;18.77;;;;;;;;;;5107201;28;20439;-68
2022/03/04 03:58:49;;;;;;;34.00;18.70;;;;;;;;;;5092677;28;20103;-68
2022/03/04 04:01:14;;;;;;;36.88;20.15;;;;;;;;;;5090184;28;20189;-68
2022/03/04 04:03:43;;;;;;;36.13;19.48;;;;;;;;;;5090447;28;20024;-68
2022/03/04 04:06:08;;;;;;;35.60;18.50;;;;;;;;;;5076003;28;20150;-68
2022/03/04 04:08:34;;;;;;;37.55;18.90;;;;;;;;;;5089242;28;20487;-67
2022/03/04 04:10:59;;;;;;;37.10;18.73;;;;;;;;;;5090006;28;20024;-68
2022/03/04 04:13:24;;;;;;;36.33;18.30;;;;;;;;;;5089202;28;20027;-68
2022/03/04 04:15:52;;;;;;;35.03;18.10;;;;;;;;;;5089798;28;20028;-68
2022/03/04 04:18:18;;;;;;;32.05;18.35;;;;;;;;;;5090051;28;20027;-69
2022/03/04 04:20:43;;;;;;;32.60;18.40;;;;;;;;;;5090805;28;20491;-69
2022/03/04 04:23:09;;;;;;;31.85;17.85;;;;;;;;;;5089337;28;20085;-70
2022/03/04 04:25:34;;;;;;;35.47;18.33;;;;;;;;;;5090886;28;20419;-68
2022/03/04 04:27:59;;;;;;;32.15;17.77;;;;;;;;;;5072033;28;20028;-68
2022/03/04 04:30:25;;;;;;;35.88;18.27;;;;;;;;;;5089196;28;20115;-69
2022/03/04 04:32:52;;;;;;;36.28;19.17;;;;;;;;;;5072128;28;20074;-69
2022/03/04 04:35:20;;;;;;;33.65;18.70;;;;;;;;;;5072336;28;20028;-68
2022/03/04 04:37:45;;;;;;;31.70;17.58;;;;;;;;;;5076960;28;20028;-69
2022/03/04 04:40:10;;;;;;;35.28;19.02;;;;;;;;;;5090094;28;20552;-69
2022/03/04 04:42:36;;;;;;;34.08;18.77;;;;;;;;;;5055420;28;20070;-68
2022/03/04 04:45:02;;;;;;;37.13;18.70;;;;;;;;;;5095331;28;20067;-68
2022/03/04 04:47:27;;;;;;;33.85;17.80;;;;;;;;;;5095216;28;20028;-68
2022/03/04 04:49:55;;;;;;;34.50;18.13;;;;;;;;;;5090709;28;20119;-69
2022/03/04 04:52:21;;;;;;;32.83;18.35;;;;;;;;;;5089835;28;20095;-68
2022/03/04 04:54:46;;;;;;;35.85;18.00;;;;;;;;;;5106302;28;20047;-68
2022/03/04 04:57:12;;;;;;;35.53;18.08;;;;;;;;;;5090487;28;20032;-68
2022/03/04 04:59:38;;;;;;;36.10;18.70;;;;;;;;;;5095892;28;20387;-68
2022/03/04 05:02:06;;;;;;;36.13;19.02;;;;;;;;;;5088252;28;20089;-69
2022/03/04 05:04:32;;;;;;;36.25;19.25;;;;;;;;;;5092458;28;20073;-68
2022/03/04 05:06:58;;;;;;;33.83;19.00;;;;;;;;;;5089899;28;20020;-68
2022/03/04 05:09:23;;;;;;;36.60;19.15;;;;;;;;;;5090108;28;20565;-68
2022/03/04 05:11:48;;;;;;;36.97;19.17;;;;;;;;;;5090229;28;20032;-69
2022/03/04 05:14:14;;;;;;;37.55;19.58;;;;;;;;;;5087987;28;20054;-68
2022/03/04 05:16:39;;;;;;;37.17;19.63;;;;;;;;;;5090073;28;20020;-69
2022/03/04 05:19:04;;;;;;;37.65;20.58;;;;;;;;;;5089435;28;20028;-68
2022/03/04 05:21:34;;;;;;;35.45;18.65;;;;;;;;;;5090134;28;20472;-68
2022/03/04 05:24:00;;;;;;;38.70;18.83;;;;;;;;;;5088502;28;20028;-69
2022/03/04 05:26:30;;;;;;;35.40;19.07;;;;;;;;;;5088485;28;20429;-69
2022/03/04 05:29:00;;;;;;;34.05;19.13;;;;;;;;;;5090194;28;20475;-69
2022/03/04 05:31:26;;;;;;;39.78;19.08;;;;;;;;;;5089246;28;20165;-69
2022/03/04 05:33:52;;;;;;;37.65;19.70;;;;;;;;;;5089272;28;20410;-69
2022/03/04 05:36:19;;;;;;;34.22;19.30;;;;;;;;;;5089889;28;20024;-68
2022/03/04 05:38:44;;;;;;;39.65;20.17;;;;;;;;;;5089892;28;20047;-67
2022/03/04 05:41:10;;;;;;;37.15;20.15;;;;;;;;;;5088316;28;20020;-68
2022/03/04 05:43:38;;;;;;;36.53;20.30;;;;;;;;;;5096040;28;20073;-68
2022/03/04 05:46:04;;;;;;;35.72;18.88;;;;;;;;;;5076498;28;20438;-68
2022/03/04 05:48:29;;;;;;;37.97;20.47;;;;;;;;;;5088818;28;20044;-70
2022/03/04 05:50:57;;;;;;;38.67;20.67;;;;;;;;;;5089982;28;20035;-68
2022/03/04 05:53:27;;;;;;;36.77;19.90;;;;;;;;;;5089999;28;20183;-67
2022/03/04 05:55:54;;;;;;;39.07;20.57;;;;;;;;;;5089731;28;20073;-68
2022/03/04 05:58:19;;;;;;;40.23;22.03;;;;;;;;;;5095264;28;20028;-69
2022/03/04 06:00:45;;;;;;;41.27;20.67;;;;;;;;;;5090752;28;20031;-69
2022/03/04 06:03:11;;;;;;;39.67;20.53;;;;;;;;;;5091601;28;20028;-69
2022/03/04 06:05:36;;;;;;;38.63;21.10;;;;;;;;;;5096557;28;20031;-68
2022/03/04 06:08:02;;;;;;;38.77;21.07;;;;;;;;;;5093500;28;20024;-68
2022/03/04 06:10:29;;;;;;;38.47;21.63;;;;;;;;;;5092155;28;20030;-68
2022/03/04 06:12:55;;;;;;;41.00;21.23;;;;;;;;;;5091772;28;20067;-69
2022/03/04 06:15:20;;;;;;;34.27;20.00;;;;;;;;;;5093179;28;20031;-68
2022/03/04 06:17:50;;;;;;;38.03;20.77;;;;;;;;;;5092665;28;20402;-69
2022/03/04 06:20:16;;;;;;;38.80;20.67;;;;;;;;;;5093568;28;20027;-69
2022/03/04 06:22:41;;;;;;;39.33;21.35;;;;;;;;;;5091060;28;20115;-68
2022/03/04 06:25:07;;;;;;;37.47;21.67;;;;;;;;;;5093282;28;20102;-68
2022/03/04 06:27:32;;;;;;;39.17;21.17;;;;;;;;;;5091741;28;20044;-68
2022/03/04 06:29:58;;;;;;;38.13;20.13;;;;;;;;;;5093024;28;20016;-68
2022/03/04 06:32:23;;;;;;;39.65;21.83;;;;;;;;;;5090970;28;20032;-70
2022/03/04 06:34:49;;;;;;;39.27;22.00;;;;;;;;;;5074197;28;20056;-68
2022/03/04 06:37:16;;;;;;;39.83;21.50;;;;;;;;;;5091833;28;20441;-68
2022/03/04 06:39:44;;;;;;;41.17;22.27;;;;;;;;;;5093019;28;20032;-68
2022/03/04 06:42:13;;;;;;;39.10;21.17;;;;;;;;;;5091650;28;20028;-68
2022/03/04 06:44:38;;;;;;;37.70;21.73;;;;;;;;;;5098880;28;20097;-68
2022/03/04 06:47:04;;;;;;;40.00;21.97;;;;;;;;;;5098792;28;20038;-69
2022/03/04 06:49:29;;;;;;;40.83;21.30;;;;;;;;;;5092072;28;20055;-69
2022/03/04 06:51:55;;;;;;;40.07;21.57;;;;;;;;;;5057875;28;20036;-68
2022/03/04 06:54:20;;;;;;;38.63;20.83;;;;;;;;;;5093054;28;20059;-68
2022/03/04 06:56:49;;;;;;;44.07;21.80;;;;;;;;;;5092592;28;20032;-69
2022/03/04 06:59:16;;;;;;;37.67;20.87;;;;;;;;;;5097797;28;20039;-69
2022/03/04 07:01:44;;;;;;;38.70;22.17;;;;;;;;;;5092077;28;20496;-69
2022/03/04 07:04:09;;;;;;;41.33;21.77;;;;;;;;;;5095321;28;20031;-69
2022/03/04 07:06:36;;;;;;;42.63;22.03;;;;;;;;;;5091395;28;20100;-68
2022/03/04 07:09:02;;;;;;;41.53;21.93;;;;;;;;;;5092430;28;20028;-67
2022/03/04 07:11:27;;;;;;;41.38;21.17;;;;;;;;;;5091708;28;20058;-70
2022/03/04 07:13:55;;;;;;;37.38;21.20;;;;;;;;;;5092672;28;20425;-68
2022/03/04 07:16:21;;;;;;;46.80;21.83;;;;;;;;;;5107823;28;20020;-68
2022/03/04 07:18:48;;;;;;;39.47;20.77;;;;;;;;;;5090851;28;20085;-68
2022/03/04 07:21:14;;;;;;;35.78;20.52;;;;;;;;;;5092142;28;20028;-69
2022/03/04 07:23:39;;;;;;;37.72;21.58;;;;;;;;;;5090968;28;20113;-69
2022/03/04 07:26:08;;;;;;;40.60;21.73;;;;;;;;;;5092351;28;20012;-68
2022/03/04 07:28:36;;;;;;;39.38;21.70;;;;;;;;;;5090509;28;20024;-67
2022/03/04 07:31:02;;;;;;;40.00;21.65;;;;;;;;;;5092067;28;20035;-69
2022/03/04 07:33:27;;;;;;;36.80;21.25;;;;;;;;;;5089998;28;20531;-68
2022/03/04 07:35:52;;;;;;;38.03;21.52;;;;;;;;;;5089374;28;20151;-68
2022/03/04 07:38:18;;;;;;;38.30;20.98;;;;;;;;;;5081312;28;20035;-68
2022/03/04 07:40:44;;;;;;;43.38;21.40;;;;;;;;;;5091903;28;21447;-69
2022/03/04 07:43:10;;;;;;;36.92;20.55;;;;;;;;;;5095489;28;20359;-68
2022/03/04 07:45:35;;;;;;;40.97;22.27;;;;;;;;;;5095762;28;20035;-69
2022/03/04 07:48:01;;;;;;;36.55;20.05;;;;;;;;;;5097812;28;20039;-69
2022/03/04 07:50:27;;;;;;;38.58;21.00;;;;;;;;;;5090739;28;20514;-68
2022/03/04 07:52:52;;;;;;;35.60;20.15;;;;;;;;;;5090798;28;20084;-69
2022/03/04 07:55:17;;;;;;;34.38;20.20;;;;;;;;;;5091354;28;20070;-69
2022/03/04 07:57:47;;;;;;;35.88;20.27;;;;;;;;;;5092882;28;20208;-69
2022/03/04 08:00:13;;;;;;;35.75;20.38;;;;;;;;;;5094125;28;20038;-68
2022/03/04 08:02:41;;;;;;;30.27;18.75;;;;;;;;;;5090731;28;20039;-69
2022/03/04 08:05:08;;;;;;;35.75;19.83;;;;;;;;;;5092776;28;20066;-68
2022/03/04 08:07:34;;;;;;;29.70;18.23;;;;;;;;;;5091223;28;20491;-68
2022/03/04 08:09:59;;;;;;;27.27;17.27;;;;;;;;;;5091536;28;20016;-67
2022/03/04 08:12:25;;;;;;;29.10;18.40;;;;;;;;;;5089988;28;20515;-68
2022/03/04 08:14:51;;;;;;;31.88;17.55;;;;;;;;;;5091797;28;20111;-68
2022/03/04 08:17:17;;;;;;;27.73;16.35;;;;;;;;;;5090336;28;20024;-69
2022/03/04 08:19:42;;;;;;;24.42;17.02;;;;;;;;;;5089714;28;20058;-68
2022/03/04 08:22:10;;;;;;;26.55;17.77;;;;;;;;;;5089676;28;20042;-68
2022/03/04 08:24:36;;;;;;;25.02;16.55;;;;;;;;;;5090825;28;20078;-69
2022/03/04 08:27:02;;;;;;;25.42;16.63;;;;;;;;;;5089607;28;20032;-68
2022/03/04 08:29:27;;;;;;;25.77;15.98;;;;;;;;;;5089755;28;20040;-69
2022/03/04 08:31:52;;;;;;;24.88;16.63;;;;;;;;;;5090965;28;20024;-69
2022/03/04 08:34:18;;;;;;;26.67;15.93;;;;;;;;;;5090734;28;20035;-70
2022/03/04 08:36:43;;;;;;;22.38;15.57;;;;;;;;;;5091298;28;20034;-69
2022/03/04 08:39:09;;;;;;;26.25;16.88;;;;;;;;;;5090638;28;20458;-69
2022/03/04 08:41:35;;;;;;;26.75;16.08;;;;;;;;;;5089165;28;20410;-69
2022/03/04 08:44:03;;;;;;;22.40;15.48;;;;;;;;;;5099015;28;20043;-69
2022/03/04 08:46:28;;;;;;;23.88;15.93;;;;;;;;;;5094061;28;20016;-68
2022/03/04 08:48:54;;;;;;;24.33;16.25;;;;;;;;;;5093414;28;20070;-69
2022/03/04 08:51:24;;;;;;;24.77;15.98;;;;;;;;;;5091067;28;20093;-68
2022/03/04 08:53:51;;;;;;;24.15;15.90;;;;;;;;;;5090024;28;20431;-69
2022/03/04 08:56:16;;;;;;;22.23;16.55;;;;;;;;;;5072443;28;20418;-68
2022/03/04 08:58:42;;;;;;;25.95;17.42;;;;;;;;;;5088960;28;20030;-68
2022/03/04 09:01:07;;;;;;;23.80;16.02;;;;;;;;;;5089319;28;20040;-68
2022/03/04 09:03:32;;;;;;;25.08;16.33;;;;;;;;;;5054722;28;20118;-70
2022/03/04 09:05:58;;;;;;;24.42;16.38;;;;;;;;;;5093358;28;20043;-68
2022/03/04 09:08:24;;;;;;;24.10;16.83;;;;;;;;;;5090485;28;20433;-69
2022/03/04 09:10:50;;;;;;;22.55;15.80;;;;;;;;;;5088704;28;20115;-68
2022/03/04 09:13:15;;;;;;;26.35;16.95;;;;;;;;;;5090247;28;20024;-69
2022/03/04 09:15:41;;;;;;;24.77;16.33;;;;;;;;;;5089967;28;20024;-69
2022/03/04 09:18:08;;;;;;;26.02;16.42;;;;;;;;;;5090096;28;20055;-69
2022/03/04 09:20:36;;;;;;;24.10;16.27;;;;;;;;;;5090260;28;20027;-70
2022/03/04 09:23:02;;;;;;;24.38;15.80;;;;;;;;;;5088570;28;20411;-69
2022/03/04 09:25:27;;;;;;;22.58;16.10;;;;;;;;;;5090592;28;20066;-69
2022/03/04 09:27:53;;;;;;;22.33;15.93;;;;;;;;;;5105564;28;20024;-70
2022/03/04 09:30:18;;;;;;;26.45;16.25;;;;;;;;;;5089174;28;20028;-70
2022/03/04 09:32:44;;;;;;;24.38;15.80;;;;;;;;;;5089742;28;20032;-70
2022/03/04 09:35:10;;;;;;;25.30;16.40;;;;;;;;;;5091845;28;20020;-70
2022/03/04 09:37:35;;;;;;;27.67;16.17;;;;;;;;;;5088288;28;20110;-68
2022/03/04 09:40:01;;;;;;;24.58;16.70;;;;;;;;;;5092788;28;20063;-69
2022/03/04 09:42:29;;;;;;;26.45;16.50;;;;;;;;;;5075676;28;20160;-69
2022/03/04 09:44:55;;;;;;;28.13;16.25;;;;;;;;;;5102730;28;20059;-69
2022/03/04 09:47:23;;;;;;;24.63;16.45;;;;;;;;;;5091954;28;20441;-68
2022/03/04 09:49:52;;;;;;;23.13;15.60;;;;;;;;;;5093829;28;20044;-68
2022/03/04 09:52:17;;;;;;;23.60;15.98;;;;;;;;;;5093335;28;20047;-68
2022/03/04 09:54:47;;;;;;;23.58;16.58;;;;;;;;;;5094054;28;20028;-69
2022/03/04 09:57:12;;;;;;;24.70;15.90;;;;;;;;;;5094026;28;20032;-70
2022/03/04 09:59:38;;;;;;;23.15;15.88;;;;;;;;;;5098387;28;20028;-70
2022/03/04 10:02:04;;;;;;;22.45;15.70;;;;;;;;;;5093997;28;20418;-68
2022/03/04 10:04:31;;;;;;;25.42;16.05;;;;;;;;;;5096117;28;20065;-69
2022/03/04 10:06:57;;;;;;;27.05;16.33;;;;;;;;;;5092187;28;20103;-68
2022/03/04 10:09:42;;;;;;;31.60;15.88;;;;;;;;;;5093485;28;20020;-70
2022/03/04 10:12:08;;;;;;;23.40;15.65;;;;;;;;;;5092437;28;20080;-70
2022/03/04 10:14:33;;;;;;;24.05;15.95;;;;;;;;;;5093127;28;20028;-68
2022/03/04 10:17:02;;;;;;;21.65;15.88;;;;;;;;;;5093954;28;20031;-69
2022/03/04 10:19:29;;;;;;;23.48;16.13;;;;;;;;;;5092729;28;20024;-67
2022/03/04 10:22:04;;;;;;;22.95;15.82;;;;;;;;;;5093338;28;20032;-68
2022/03/04 10:24:32;;;;;;;23.75;15.60;;;;;;;;;;5092742;28;20024;-68
2022/03/04 10:27:10;;;;;;;25.33;15.80;;;;;;;;;;5093608;28;20024;-69
2022/03/04 10:29:43;;;;;;;28.70;16.60;;;;;;;;;;5093307;28;20417;-68
2022/03/04 10:32:18;;;;;;;24.92;16.50;;;;;;;;;;5091761;28;20084;-69
2022/03/04 10:34:44;;;;;;;22.60;15.88;;;;;;;;;;5092766;28;20452;-69
2022/03/04 10:37:10;;;;;;;23.20;15.85;;;;;;;;;;5092542;28;20130;-68
2022/03/04 10:39:36;;;;;;;22.25;15.85;;;;;;;;;;5093133;28;20153;-68
2022/03/04 10:42:01;;;;;;;24.95;16.30;;;;;;;;;;5092817;28;20119;-69
2022/03/04 10:44:27;;;;;;;27.08;17.15;;;;;;;;;;5099270;28;20012;-69
2022/03/04 10:46:53;;;;;;;30.92;21.20;;;;;;;;;;5098028;28;20071;-69
2022/03/04 10:49:27;;;;;;;29.85;20.75;;;;;;;;;;5092033;28;20046;-68
2022/03/04 10:52:19;;;;;;;29.88;17.48;;;;;;;;;;5092929;28;20108;-68
2022/03/04 10:54:51;;;;;;;25.75;16.67;;;;;;;;;;5091655;28;20127;-68
2022/03/04 10:57:19;;;;;;;26.25;17.15;;;;;;;;;;5092349;28;20036;-68
2022/03/04 10:59:55;;;;;;;23.50;15.52;;;;;;;;;;5098345;28;20408;-68
2022/03/04 11:02:37;;;;;;;21.67;15.27;;;;;;;;;;5091842;28;20472;-67
2022/03/04 11:05:03;;;;;;;23.45;15.85;;;;;;;;;;5095161;28;20030;-69
2022/03/04 11:07:31;;;;;;;24.50;16.23;;;;;;;;;;5092554;28;20028;-69
2022/03/04 11:09:56;;;;;;;22.13;15.52;;;;;;;;;;5092346;28;20489;-69
2022/03/04 11:12:22;;;;;;;21.15;15.18;;;;;;;;;;5092588;28;20016;-68
2022/03/04 11:14:47;;;;;;;24.42;15.88;;;;;;;;;;5092082;28;20028;-69
2022/03/04 11:17:13;;;;;;;21.42;15.55;;;;;;;;;;5093006;28;20028;-68
2022/03/04 11:19:38;;;;;;;23.80;15.90;;;;;;;;;;5091554;28;20361;-67
2022/03/04 11:22:03;;;;;;;23.85;15.95;;;;;;;;;;5090723;28;20068;-68
2022/03/04 11:24:36;;;;;;;21.15;14.75;;;;;;;;;;5089410;28;20109;-68
2022/03/04 11:27:04;;;;;;;20.92;15.27;;;;;;;;;;5092406;28;20096;-67
2022/03/04 11:29:36;;;;;;;23.17;15.65;;;;;;;;;;5092059;28;20074;-68
2022/03/04 11:32:06;;;;;;;21.45;15.70;;;;;;;;;;5092342;28;20103;-69
2022/03/04 11:34:41;;;;;;;21.90;15.65;;;;;;;;;;5089348;28;20016;-69
2022/03/04 11:37:20;;;;;;;22.45;15.60;;;;;;;;;;5078659;28;20017;-69
2022/03/04 11:40:03;;;;;;;22.90;15.45;;;;;;;;;;5080042;28;20107;-68
2022/03/04 11:42:39;;;;;;;21.17;15.25;;;;;;;;;;5090515;28;20058;-68
2022/03/04 11:45:07;;;;;;;22.10;14.77;;;;;;;;;;5099604;28;20389;-69
2022/03/04 11:47:40;;;;;;;21.58;14.32;;;;;;;;;;5097846;28;20380;-69
2022/03/04 11:50:24;;;;;;;21.23;14.20;;;;;;;;;;5091828;28;20048;-68
2022/03/04 11:52:49;;;;;;;20.15;14.27;;;;;;;;;;5073298;28;20092;-68
2022/03/04 11:55:21;;;;;;;21.85;14.52;;;;;;;;;;5088472;28;20028;-68
2022/03/04 11:57:47;;;;;;;18.02;13.90;;;;;;;;;;5091094;28;20030;-67
2022/03/04 12:00:12;;;;;;;20.00;14.32;;;;;;;;;;5096339;28;20060;-68
2022/03/04 12:02:44;;;;;;;22.25;14.73;;;;;;;;;;5090748;28;20145;-69
2022/03/04 12:05:12;;;;;;;20.67;14.82;;;;;;;;;;5094360;28;20024;-69
2022/03/04 12:07:41;;;;;;;21.20;14.52;;;;;;;;;;5089392;28;20491;-68
2022/03/04 12:10:16;;;;;;;20.52;13.73;;;;;;;;;;5091171;28;20020;-68
2022/03/04 12:13:01;;;;;;;20.58;14.05;;;;;;;;;;5089925;28;20031;-68
2022/03/04 12:15:30;;;;;;;18.75;13.10;;;;;;;;;;5091529;28;20537;-69
2022/03/04 12:18:03;;;;;;;20.77;13.38;;;;;;;;;;5090287;28;20027;-68
2022/03/04 12:20:28;;;;;;;;;;;;;;;;;;5090002;28;20174;-68
2022/03/04 12:23:11;;;;;;;20.90;13.57;;;;;;;;;;5089967;28;19918;-68
2022/03/04 12:25:51;;;;;;;20.35;13.57;;;;;;;;;;5091839;28;20016;-67
2022/03/04 12:28:17;;;;;;;19.88;13.60;;;;;;;;;;5091339;28;20020;-69
2022/03/04 12:30:45;;;;;;;18.15;12.65;;;;;;;;;;5090550;28;20023;-68
2022/03/04 12:33:12;;;;;;;19.17;13.63;;;;;;;;;;5090392;28;20035;-67
2022/03/04 12:35:39;;;;;;;21.58;13.32;;;;;;;;;;5090789;28;20030;-69
2022/03/04 12:38:05;;;;;;;19.35;13.30;;;;;;;;;;5091105;28;20535;-68
2022/03/04 12:40:30;;;;;;;20.85;14.15;;;;;;;;;;5072343;28;20115;-68
2022/03/04 12:42:56;;;;;;;19.15;13.32;;;;;;;;;;5088787;28;20051;-69
2022/03/04 12:45:22;;;;;;;20.55;13.65;;;;;;;;;;5067105;28;20162;-69
2022/03/04 12:47:49;;;;;;;21.67;14.35;;;;;;;;;;5061732;28;20040;-69
2022/03/04 12:50:15;;;;;;;18.60;12.90;;;;;;;;;;5050504;28;20082;-69
2022/03/04 12:52:40;;;;;;;22.70;13.40;;;;;;;;;;5067746;28;20039;-69
2022/03/04 12:55:08;;;;;;;18.98;13.60;;;;;;;;;;5066863;28;20221;-69
2022/03/04 12:57:36;;;;;;;19.67;13.60;;;;;;;;;;5064036;28;20451;-68
2022/03/04 13:00:02;;;;;;;20.88;12.57;;;;;;;;;;5082273;28;20055;-68
2022/03/04 13:02:36;;;;;;;19.92;13.55;;;;;;;;;;5066161;28;20118;-69
2022/03/04 13:05:03;;;;;;;19.70;13.65;;;;;;;;;;5067278;28;20028;-68
2022/03/04 13:07:28;;;;;;;20.13;13.43;;;;;;;;;;5066995;28;20107;-68
2022/03/04 13:09:55;;;;;;;18.55;13.40;;;;;;;;;;5066784;28;20436;-67
2022/03/04 13:12:23;;;;;;;21.80;13.30;;;;;;;;;;5065189;28;20032;-66
2022/03/04 13:14:49;;;;;;;21.75;14.07;;;;;;;;;;5066607;28;20030;-69
2022/03/04 13:17:15;;;;;;;20.70;13.25;;;;;;;;;;5066031;28;20109;-68
2022/03/04 13:19:40;;;;;;;19.92;14.00;;;;;;;;;;5066711;28;20071;-68
2022/03/04 13:22:10;;;;;;;22.45;13.25;;;;;;;;;;5051002;28;21884;-69
2022/03/04 13:24:35;;;;;;;19.88;13.90;;;;;;;;;;5065875;28;20387;-68
2022/03/04 13:27:01;;;;;;;19.80;12.80;;;;;;;;;;5066760;28;20035;-68
2022/03/04 13:29:30;;;;;;;21.13;13.35;;;;;;;;;;5065902;28;20054;-69
2022/03/04 13:32:04;;;;;;;19.73;13.50;;;;;;;;;;5067017;28;20514;-68
2022/03/04 13:34:29;;;;;;;19.25;13.18;;;;;;;;;;5066117;28;20781;-68
2022/03/04 13:37:00;;;;;;;23.98;13.65;;;;;;;;;;5067242;28;20042;-68
2022/03/04 13:39:25;;;;;;;24.80;13.80;;;;;;;;;;5065783;28;20341;-69
2022/03/04 13:42:07;;;;;;;26.20;13.57;;;;;;;;;;5066137;28;20035;-69
2022/03/04 13:44:33;;;;;;;19.48;13.32;;;;;;;;;;5066127;28;20020;-67
2022/03/04 13:47:06;;;;;;;21.33;13.80;;;;;;;;;;5066791;28;20062;-67
2022/03/04 13:49:41;;;;;;;20.42;13.35;;;;;;;;;;5065998;28;20055;-69
2022/03/04 13:52:07;;;;;;;22.13;13.88;;;;;;;;;;5064019;28;20127;-68
2022/03/04 13:54:51;;;;;;;20.10;13.50;;;;;;;;;;5066887;28;20036;-68
2022/03/04 13:57:30;;;;;;;23.33;13.27;;;;;;;;;;5066043;28;20024;-69
2022/03/04 14:00:00;;;;;;;21.73;13.60;;;;;;;;;;5061099;28;20024;-69
2022/03/04 14:02:28;;;;;;;21.45;13.25;;;;;;;;;;5065776;28;20032;-69
2022/03/04 14:04:55;;;;;;;23.90;14.25;;;;;;;;;;5066480;28;20034;-68
2022/03/04 14:07:21;;;;;;;24.05;14.55;;;;;;;;;;5044365;28;20035;-68
2022/03/04 14:09:50;;;;;;;26.50;14.63;;;;;;;;;;5081321;28;21783;-67
2022/03/04 14:12:16;;;;;;;23.65;14.23;;;;;;;;;;5063766;28;20085;-69
2022/03/04 14:14:41;;;;;;;24.00;14.65;;;;;;;;;;5066464;28;20180;-71
2022/03/04 14:17:07;;;;;;;22.92;15.35;;;;;;;;;;5060763;28;20036;-68
2022/03/04 14:19:33;;;;;;;22.90;14.68;;;;;;;;;;5061037;28;20143;-68